ADA weather

Adana Airport
Adana, Adana Province, Turkey

Public forecast

Using degrees Celsius for public forecast. Weather courtesy of forecast.io.

METAR (pilot weather report)

Retrieved 2019/05/25 16:20 UTC (4 minutes ago):

LTAF 251620Z 19008KT 9999 SCT035 23/15 Q1013 NOSIG RMK RWY23 20010KT

TAF (pilot weather forecast)

Retrieved 2019/05/25 12:00 UTC (4 hours ago):

TAF LTAF 251040Z 2512/2612 19012KT 9999 SCT035 BECMG 2516/2518 VRB02KT